Terminal Aerodrome Forecast
Issued by NWS Tulsa, OK

Home | Current Version | Previous Version | Text Only | Print | Product List | Glossary On
Versions: 1 2 3 4 5 6 7 8 9 10 11 12
020
FTUS44 KTSA 060534
TAFFSM
TAF
KFSM 060534Z 0606/0706 06003KT P6SM BKN120
     FM061700 25005KT P6SM SKC
     FM070100 00000KT P6SM SKC=

USA.gov is the U.S. government's official web portal to all federal, state and local government web resources and services.